sensor_id;sensor_type;location;lat;lon;timestamp;P1;durP1;ratioP1;P2;durP2;ratioP2
27375;SDS011;14844;51.302;6.354;2023-11-21T00:01:35;61.88;;;29.92;;
27375;SDS011;14844;51.302;6.354;2023-11-21T00:04:01;64.22;;;30.15;;
27375;SDS011;14844;51.302;6.354;2023-11-21T00:06:27;62.78;;;30.13;;
27375;SDS011;14844;51.302;6.354;2023-11-21T00:08:52;62.40;;;30.55;;
27375;SDS011;14844;51.302;6.354;2023-11-21T00:11:18;54.55;;;28.40;;
27375;SDS011;14844;51.302;6.354;2023-11-21T00:13:43;53.00;;;28.60;;
27375;SDS011;14844;51.302;6.354;2023-11-21T00:16:09;50.60;;;27.58;;
27375;SDS011;14844;51.302;6.354;2023-11-21T00:18:34;50.00;;;27.60;;
27375;SDS011;14844;51.302;6.354;2023-11-21T00:21:00;41.45;;;25.38;;
27375;SDS011;14844;51.302;6.354;2023-11-21T00:23:26;43.55;;;25.05;;
27375;SDS011;14844;51.302;6.354;2023-11-21T00:25:51;48.40;;;25.73;;
27375;SDS011;14844;51.302;6.354;2023-11-21T00:28:17;47.97;;;25.25;;
27375;SDS011;14844;51.302;6.354;2023-11-21T00:30:42;44.63;;;25.00;;
27375;SDS011;14844;51.302;6.354;2023-11-21T00:33:08;48.78;;;25.08;;
27375;SDS011;14844;51.302;6.354;2023-11-21T00:35:34;49.00;;;25.20;;
27375;SDS011;14844;51.302;6.354;2023-11-21T00:38:00;51.58;;;25.98;;
27375;SDS011;14844;51.302;6.354;2023-11-21T00:40:25;45.50;;;24.65;;
27375;SDS011;14844;51.302;6.354;2023-11-21T00:42:51;45.58;;;25.50;;
27375;SDS011;14844;51.302;6.354;2023-11-21T00:45:16;52.70;;;27.65;;
27375;SDS011;14844;51.302;6.354;2023-11-21T00:47:42;51.08;;;26.40;;
27375;SDS011;14844;51.302;6.354;2023-11-21T00:50:08;51.17;;;25.42;;
27375;SDS011;14844;51.302;6.354;2023-11-21T00:52:34;44.60;;;24.60;;
27375;SDS011;14844;51.302;6.354;2023-11-21T00:55:01;49.60;;;25.17;;
27375;SDS011;14844;51.302;6.354;2023-11-21T00:57:28;41.03;;;24.20;;
27375;SDS011;14844;51.302;6.354;2023-11-21T00:59:53;45.78;;;24.65;;
27375;SDS011;14844;51.302;6.354;2023-11-21T01:02:19;40.08;;;22.52;;
27375;SDS011;14844;51.302;6.354;2023-11-21T01:04:45;43.13;;;23.40;;
27375;SDS011;14844;51.302;6.354;2023-11-21T01:07:12;45.10;;;22.10;;
27375;SDS011;14844;51.302;6.354;2023-11-21T01:09:38;33.53;;;21.02;;
27375;SDS011;14844;51.302;6.354;2023-11-21T01:12:04;35.72;;;20.83;;
27375;SDS011;14844;51.302;6.354;2023-11-21T01:14:29;43.40;;;22.50;;
27375;SDS011;14844;51.302;6.354;2023-11-21T01:16:55;39.53;;;20.58;;
27375;SDS011;14844;51.302;6.354;2023-11-21T01:19:20;32.42;;;19.83;;
27375;SDS011;14844;51.302;6.354;2023-11-21T01:21:46;43.33;;;21.20;;
27375;SDS011;14844;51.302;6.354;2023-11-21T01:24:12;31.95;;;19.00;;
27375;SDS011;14844;51.302;6.354;2023-11-21T01:26:37;35.53;;;19.77;;
27375;SDS011;14844;51.302;6.354;2023-11-21T01:29:03;37.38;;;20.17;;
27375;SDS011;14844;51.302;6.354;2023-11-21T01:31:29;43.40;;;22.55;;
27375;SDS011;14844;51.302;6.354;2023-11-21T01:33:55;39.28;;;23.10;;
27375;SDS011;14844;51.302;6.354;2023-11-21T01:36:21;44.40;;;23.50;;
27375;SDS011;14844;51.302;6.354;2023-11-21T01:38:47;42.92;;;23.98;;
27375;SDS011;14844;51.302;6.354;2023-11-21T01:41:15;45.08;;;24.95;;
27375;SDS011;14844;51.302;6.354;2023-11-21T01:43:41;42.45;;;25.35;;
27375;SDS011;14844;51.302;6.354;2023-11-21T01:46:07;51.45;;;25.83;;
27375;SDS011;14844;51.302;6.354;2023-11-21T01:48:33;53.17;;;28.45;;
27375;SDS011;14844;51.302;6.354;2023-11-21T01:50:59;56.08;;;31.27;;
27375;SDS011;14844;51.302;6.354;2023-11-21T01:53:26;62.92;;;35.28;;
27375;SDS011;14844;51.302;6.354;2023-11-21T01:55:52;61.72;;;35.67;;
27375;SDS011;14844;51.302;6.354;2023-11-21T01:58:18;62.25;;;33.72;;
27375;SDS011;14844;51.302;6.354;2023-11-21T02:00:45;59.17;;;31.83;;
27375;SDS011;14844;51.302;6.354;2023-11-21T02:03:10;55.75;;;31.48;;
27375;SDS011;14844;51.302;6.354;2023-11-21T02:05:37;54.83;;;29.30;;
27375;SDS011;14844;51.302;6.354;2023-11-21T02:08:02;53.05;;;28.98;;
27375;SDS011;14844;51.302;6.354;2023-11-21T02:10:29;56.55;;;30.25;;
27375;SDS011;14844;51.302;6.354;2023-11-21T02:12:56;51.20;;;28.35;;
27375;SDS011;14844;51.302;6.354;2023-11-21T02:15:23;51.35;;;27.85;;
27375;SDS011;14844;51.302;6.354;2023-11-21T02:17:51;53.40;;;27.60;;
27375;SDS011;14844;51.302;6.354;2023-11-21T02:20:18;55.25;;;27.55;;
27375;SDS011;14844;51.302;6.354;2023-11-21T02:22:52;56.08;;;27.77;;
27375;SDS011;14844;51.302;6.354;2023-11-21T02:25:22;57.28;;;26.88;;
27375;SDS011;14844;51.302;6.354;2023-11-21T02:27:58;52.38;;;26.60;;
27375;SDS011;14844;51.302;6.354;2023-11-21T02:30:25;56.95;;;27.80;;
27375;SDS011;14844;51.302;6.354;2023-11-21T02:32:53;56.47;;;27.73;;
27375;SDS011;14844;51.302;6.354;2023-11-21T02:35:19;59.90;;;28.92;;
27375;SDS011;14844;51.302;6.354;2023-11-21T02:37:47;58.55;;;27.75;;
27375;SDS011;14844;51.302;6.354;2023-11-21T02:40:32;56.38;;;27.52;;
27375;SDS011;14844;51.302;6.354;2023-11-21T02:42:57;52.67;;;27.40;;
27375;SDS011;14844;51.302;6.354;2023-11-21T02:45:24;55.47;;;27.20;;
27375;SDS011;14844;51.302;6.354;2023-11-21T02:47:49;53.65;;;27.50;;
27375;SDS011;14844;51.302;6.354;2023-11-21T02:50:16;51.85;;;27.00;;
27375;SDS011;14844;51.302;6.354;2023-11-21T02:52:44;49.50;;;26.58;;
27375;SDS011;14844;51.302;6.354;2023-11-21T02:55:09;49.88;;;27.25;;
27375;SDS011;14844;51.302;6.354;2023-11-21T02:57:35;51.72;;;28.27;;
27375;SDS011;14844;51.302;6.354;2023-11-21T03:00:00;51.92;;;27.00;;
27375;SDS011;14844;51.302;6.354;2023-11-21T03:02:26;55.25;;;27.10;;
27375;SDS011;14844;51.302;6.354;2023-11-21T03:04:51;54.33;;;27.15;;
27375;SDS011;14844;51.302;6.354;2023-11-21T03:07:17;52.17;;;27.52;;
27375;SDS011;14844;51.302;6.354;2023-11-21T03:09:46;60.88;;;28.92;;
27375;SDS011;14844;51.302;6.354;2023-11-21T03:12:12;61.63;;;28.33;;
27375;SDS011;14844;51.302;6.354;2023-11-21T03:14:38;54.28;;;28.23;;
27375;SDS011;14844;51.302;6.354;2023-11-21T03:17:04;61.15;;;29.00;;
27375;SDS011;14844;51.302;6.354;2023-11-21T03:19:30;61.22;;;29.02;;
27375;SDS011;14844;51.302;6.354;2023-11-21T03:21:56;61.35;;;28.40;;
27375;SDS011;14844;51.302;6.354;2023-11-21T03:24:21;62.08;;;29.20;;
27375;SDS011;14844;51.302;6.354;2023-11-21T03:26:47;61.30;;;28.25;;
27375;SDS011;14844;51.302;6.354;2023-11-21T03:29:14;63.25;;;29.65;;
27375;SDS011;14844;51.302;6.354;2023-11-21T03:31:40;61.17;;;29.50;;
27375;SDS011;14844;51.302;6.354;2023-11-21T03:34:05;58.75;;;28.88;;
27375;SDS011;14844;51.302;6.354;2023-11-21T03:36:31;69.85;;;29.55;;
27375;SDS011;14844;51.302;6.354;2023-11-21T03:38:56;68.10;;;29.40;;
27375;SDS011;14844;51.302;6.354;2023-11-21T03:41:22;63.15;;;29.63;;
27375;SDS011;14844;51.302;6.354;2023-11-21T03:43:47;70.18;;;30.00;;
27375;SDS011;14844;51.302;6.354;2023-11-21T03:46:13;56.63;;;27.92;;
27375;SDS011;14844;51.302;6.354;2023-11-21T03:48:39;59.38;;;27.60;;
27375;SDS011;14844;51.302;6.354;2023-11-21T03:51:05;66.18;;;28.92;;
27375;SDS011;14844;51.302;6.354;2023-11-21T03:53:30;61.03;;;28.73;;
27375;SDS011;14844;51.302;6.354;2023-11-21T03:55:57;58.17;;;27.63;;
27375;SDS011;14844;51.302;6.354;2023-11-21T03:58:22;69.45;;;29.27;;
27375;SDS011;14844;51.302;6.354;2023-11-21T04:00:48;61.47;;;28.08;;
27375;SDS011;14844;51.302;6.354;2023-11-21T04:03:14;69.38;;;30.88;;
27375;SDS011;14844;51.302;6.354;2023-11-21T04:05:40;72.20;;;30.73;;
27375;SDS011;14844;51.302;6.354;2023-11-21T04:08:06;67.50;;;29.73;;
27375;SDS011;14844;51.302;6.354;2023-11-21T04:10:32;62.65;;;28.42;;
27375;SDS011;14844;51.302;6.354;2023-11-21T04:12:57;56.38;;;27.80;;
27375;SDS011;14844;51.302;6.354;2023-11-21T04:15:23;64.07;;;27.80;;
27375;SDS011;14844;51.302;6.354;2023-11-21T04:17:49;57.97;;;27.88;;
27375;SDS011;14844;51.302;6.354;2023-11-21T04:20:14;60.28;;;28.10;;
27375;SDS011;14844;51.302;6.354;2023-11-21T04:22:40;65.28;;;29.00;;
27375;SDS011;14844;51.302;6.354;2023-11-21T04:25:08;59.00;;;28.70;;
27375;SDS011;14844;51.302;6.354;2023-11-21T04:27:38;56.60;;;28.15;;
27375;SDS011;14844;51.302;6.354;2023-11-21T04:30:10;56.47;;;27.63;;
27375;SDS011;14844;51.302;6.354;2023-11-21T04:32:37;57.15;;;28.27;;
27375;SDS011;14844;51.302;6.354;2023-11-21T04:35:07;60.08;;;28.55;;
27375;SDS011;14844;51.302;6.354;2023-11-21T04:37:36;51.30;;;27.35;;
27375;SDS011;14844;51.302;6.354;2023-11-21T04:40:01;53.28;;;27.85;;
27375;SDS011;14844;51.302;6.354;2023-11-21T04:42:31;56.17;;;27.60;;
27375;SDS011;14844;51.302;6.354;2023-11-21T04:44:58;54.35;;;28.10;;
27375;SDS011;14844;51.302;6.354;2023-11-21T04:47:23;60.63;;;28.73;;
27375;SDS011;14844;51.302;6.354;2023-11-21T04:49:49;56.95;;;28.67;;
27375;SDS011;14844;51.302;6.354;2023-11-21T04:52:15;52.72;;;28.20;;
27375;SDS011;14844;51.302;6.354;2023-11-21T04:54:40;57.85;;;28.42;;
27375;SDS011;14844;51.302;6.354;2023-11-21T04:57:06;58.92;;;28.92;;
27375;SDS011;14844;51.302;6.354;2023-11-21T04:59:34;57.85;;;28.42;;
27375;SDS011;14844;51.302;6.354;2023-11-21T05:02:00;61.13;;;30.30;;
27375;SDS011;14844;51.302;6.354;2023-11-21T05:04:27;62.55;;;30.42;;
27375;SDS011;14844;51.302;6.354;2023-11-21T05:07:15;62.28;;;31.30;;
27375;SDS011;14844;51.302;6.354;2023-11-21T05:09:57;60.85;;;30.13;;
27375;SDS011;14844;51.302;6.354;2023-11-21T05:12:23;62.67;;;30.63;;
27375;SDS011;14844;51.302;6.354;2023-11-21T05:14:49;69.05;;;32.25;;
27375;SDS011;14844;51.302;6.354;2023-11-21T05:17:28;69.25;;;32.08;;
27375;SDS011;14844;51.302;6.354;2023-11-21T05:19:53;68.07;;;33.72;;
27375;SDS011;14844;51.302;6.354;2023-11-21T05:22:19;64.25;;;32.70;;
27375;SDS011;14844;51.302;6.354;2023-11-21T05:24:45;65.30;;;33.80;;
27375;SDS011;14844;51.302;6.354;2023-11-21T05:27:10;70.43;;;34.58;;
27375;SDS011;14844;51.302;6.354;2023-11-21T05:29:36;67.22;;;34.15;;
27375;SDS011;14844;51.302;6.354;2023-11-21T05:32:02;68.50;;;34.80;;
27375;SDS011;14844;51.302;6.354;2023-11-21T05:34:28;66.85;;;34.72;;
27375;SDS011;14844;51.302;6.354;2023-11-21T05:36:54;72.00;;;36.92;;
27375;SDS011;14844;51.302;6.354;2023-11-21T05:39:19;88.10;;;39.88;;
27375;SDS011;14844;51.302;6.354;2023-11-21T05:41:45;89.53;;;42.25;;
27375;SDS011;14844;51.302;6.354;2023-11-21T05:44:11;95.97;;;42.15;;
27375;SDS011;14844;51.302;6.354;2023-11-21T05:46:39;102.75;;;46.15;;
27375;SDS011;14844;51.302;6.354;2023-11-21T05:49:05;100.20;;;44.85;;
27375;SDS011;14844;51.302;6.354;2023-11-21T05:51:33;106.20;;;47.28;;
27375;SDS011;14844;51.302;6.354;2023-11-21T05:53:58;110.85;;;47.33;;
27375;SDS011;14844;51.302;6.354;2023-11-21T05:56:24;110.47;;;48.72;;
27375;SDS011;14844;51.302;6.354;2023-11-21T05:58:49;109.68;;;47.45;;
27375;SDS011;14844;51.302;6.354;2023-11-21T06:01:16;122.75;;;49.58;;
27375;SDS011;14844;51.302;6.354;2023-11-21T06:03:41;113.88;;;48.63;;
27375;SDS011;14844;51.302;6.354;2023-11-21T06:06:08;110.45;;;47.05;;
27375;SDS011;14844;51.302;6.354;2023-11-21T06:08:33;106.43;;;46.00;;
27375;SDS011;14844;51.302;6.354;2023-11-21T06:10:59;108.45;;;46.40;;
27375;SDS011;14844;51.302;6.354;2023-11-21T06:13:24;102.53;;;43.67;;
27375;SDS011;14844;51.302;6.354;2023-11-21T06:15:51;111.25;;;45.25;;
27375;SDS011;14844;51.302;6.354;2023-11-21T06:18:16;115.78;;;47.25;;
27375;SDS011;14844;51.302;6.354;2023-11-21T06:20:44;112.63;;;47.13;;
27375;SDS011;14844;51.302;6.354;2023-11-21T06:23:10;113.50;;;47.20;;
27375;SDS011;14844;51.302;6.354;2023-11-21T06:25:36;124.70;;;49.70;;
27375;SDS011;14844;51.302;6.354;2023-11-21T06:28:01;121.28;;;49.45;;
27375;SDS011;14844;51.302;6.354;2023-11-21T06:30:27;113.75;;;47.38;;
27375;SDS011;14844;51.302;6.354;2023-11-21T06:32:54;125.00;;;48.20;;
27375;SDS011;14844;51.302;6.354;2023-11-21T06:35:21;119.10;;;48.92;;
27375;SDS011;14844;51.302;6.354;2023-11-21T06:37:46;109.22;;;46.50;;
27375;SDS011;14844;51.302;6.354;2023-11-21T06:40:13;130.63;;;50.40;;
27375;SDS011;14844;51.302;6.354;2023-11-21T06:42:43;117.03;;;47.53;;
27375;SDS011;14844;51.302;6.354;2023-11-21T06:45:09;109.90;;;46.40;;
27375;SDS011;14844;51.302;6.354;2023-11-21T06:47:35;105.93;;;45.78;;
27375;SDS011;14844;51.302;6.354;2023-11-21T06:50:02;112.05;;;46.40;;
27375;SDS011;14844;51.302;6.354;2023-11-21T06:52:28;111.47;;;46.80;;
27375;SDS011;14844;51.302;6.354;2023-11-21T06:54:54;106.57;;;46.03;;
27375;SDS011;14844;51.302;6.354;2023-11-21T06:57:20;105.32;;;44.30;;
27375;SDS011;14844;51.302;6.354;2023-11-21T06:59:47;104.20;;;44.17;;
27375;SDS011;14844;51.302;6.354;2023-11-21T07:02:13;108.65;;;45.58;;
27375;SDS011;14844;51.302;6.354;2023-11-21T07:04:39;106.07;;;45.00;;
27375;SDS011;14844;51.302;6.354;2023-11-21T07:07:06;106.13;;;44.65;;
27375;SDS011;14844;51.302;6.354;2023-11-21T07:09:32;108.30;;;45.15;;
27375;SDS011;14844;51.302;6.354;2023-11-21T07:11:57;112.97;;;45.33;;
27375;SDS011;14844;51.302;6.354;2023-11-21T07:14:23;107.07;;;44.63;;
27375;SDS011;14844;51.302;6.354;2023-11-21T07:16:49;110.88;;;44.90;;
27375;SDS011;14844;51.302;6.354;2023-11-21T07:19:17;118.80;;;44.03;;
27375;SDS011;14844;51.302;6.354;2023-11-21T07:21:43;119.65;;;45.72;;
27375;SDS011;14844;51.302;6.354;2023-11-21T07:24:08;119.20;;;45.90;;
27375;SDS011;14844;51.302;6.354;2023-11-21T07:26:34;123.63;;;46.60;;
27375;SDS011;14844;51.302;6.354;2023-11-21T07:29:00;106.88;;;44.70;;
27375;SDS011;14844;51.302;6.354;2023-11-21T07:31:27;98.35;;;43.75;;
27375;SDS011;14844;51.302;6.354;2023-11-21T07:33:54;105.68;;;43.83;;
27375;SDS011;14844;51.302;6.354;2023-11-21T07:36:22;108.38;;;44.15;;
27375;SDS011;14844;51.302;6.354;2023-11-21T07:38:48;109.93;;;44.17;;
27375;SDS011;14844;51.302;6.354;2023-11-21T07:41:13;120.35;;;43.55;;
27375;SDS011;14844;51.302;6.354;2023-11-21T07:43:42;112.43;;;43.35;;
27375;SDS011;14844;51.302;6.354;2023-11-21T07:46:08;101.05;;;43.00;;
27375;SDS011;14844;51.302;6.354;2023-11-21T07:48:34;109.07;;;42.95;;
27375;SDS011;14844;51.302;6.354;2023-11-21T07:51:00;102.03;;;42.92;;
27375;SDS011;14844;51.302;6.354;2023-11-21T07:53:28;115.65;;;44.28;;
27375;SDS011;14844;51.302;6.354;2023-11-21T07:55:58;94.00;;;42.85;;
27375;SDS011;14844;51.302;6.354;2023-11-21T07:58:34;93.97;;;40.95;;
27375;SDS011;14844;51.302;6.354;2023-11-21T08:01:00;90.05;;;39.35;;
27375;SDS011;14844;51.302;6.354;2023-11-21T08:03:26;91.07;;;40.42;;
27375;SDS011;14844;51.302;6.354;2023-11-21T08:05:52;81.95;;;38.17;;
27375;SDS011;14844;51.302;6.354;2023-11-21T08:08:18;78.03;;;36.90;;
27375;SDS011;14844;51.302;6.354;2023-11-21T08:10:44;72.60;;;34.55;;
27375;SDS011;14844;51.302;6.354;2023-11-21T08:13:13;66.40;;;34.00;;
27375;SDS011;14844;51.302;6.354;2023-11-21T08:15:41;64.93;;;33.75;;
27375;SDS011;14844;51.302;6.354;2023-11-21T08:18:11;71.70;;;33.35;;
27375;SDS011;14844;51.302;6.354;2023-11-21T08:20:36;71.20;;;32.78;;
27375;SDS011;14844;51.302;6.354;2023-11-21T08:23:04;68.95;;;33.05;;
27375;SDS011;14844;51.302;6.354;2023-11-21T08:25:30;59.08;;;31.17;;
27375;SDS011;14844;51.302;6.354;2023-11-21T08:27:57;59.40;;;31.15;;
27375;SDS011;14844;51.302;6.354;2023-11-21T08:30:22;58.78;;;30.40;;
27375;SDS011;14844;51.302;6.354;2023-11-21T08:32:49;59.58;;;30.17;;
27375;SDS011;14844;51.302;6.354;2023-11-21T08:35:18;56.35;;;29.02;;
27375;SDS011;14844;51.302;6.354;2023-11-21T08:37:44;55.30;;;28.73;;
27375;SDS011;14844;51.302;6.354;2023-11-21T08:40:10;51.25;;;27.00;;
27375;SDS011;14844;51.302;6.354;2023-11-21T08:42:41;56.08;;;28.33;;
27375;SDS011;14844;51.302;6.354;2023-11-21T08:45:07;47.60;;;26.40;;
27375;SDS011;14844;51.302;6.354;2023-11-21T08:47:34;48.65;;;26.58;;
27375;SDS011;14844;51.302;6.354;2023-11-21T08:50:01;49.55;;;26.30;;
27375;SDS011;14844;51.302;6.354;2023-11-21T08:52:27;49.85;;;26.30;;
27375;SDS011;14844;51.302;6.354;2023-11-21T08:54:53;50.70;;;27.23;;
27375;SDS011;14844;51.302;6.354;2023-11-21T08:57:23;47.90;;;26.98;;
27375;SDS011;14844;51.302;6.354;2023-11-21T08:59:49;52.95;;;26.67;;
27375;SDS011;14844;51.302;6.354;2023-11-21T09:02:20;45.20;;;24.70;;
27375;SDS011;14844;51.302;6.354;2023-11-21T09:04:48;50.00;;;24.75;;
27375;SDS011;14844;51.302;6.354;2023-11-21T09:07:13;40.35;;;23.13;;
27375;SDS011;14844;51.302;6.354;2023-11-21T09:09:39;44.17;;;24.02;;
27375;SDS011;14844;51.302;6.354;2023-11-21T09:12:05;41.45;;;22.95;;
27375;SDS011;14844;51.302;6.354;2023-11-21T09:14:30;41.45;;;23.52;;
27375;SDS011;14844;51.302;6.354;2023-11-21T09:16:56;43.83;;;22.33;;
27375;SDS011;14844;51.302;6.354;2023-11-21T09:19:22;40.10;;;22.98;;
27375;SDS011;14844;51.302;6.354;2023-11-21T09:21:47;41.20;;;23.23;;
27375;SDS011;14844;51.302;6.354;2023-11-21T09:24:14;45.20;;;23.00;;
27375;SDS011;14844;51.302;6.354;2023-11-21T09:26:39;39.13;;;22.10;;
27375;SDS011;14844;51.302;6.354;2023-11-21T09:29:05;42.97;;;22.95;;
27375;SDS011;14844;51.302;6.354;2023-11-21T09:31:30;40.90;;;22.73;;
27375;SDS011;14844;51.302;6.354;2023-11-21T09:33:58;39.63;;;21.48;;
27375;SDS011;14844;51.302;6.354;2023-11-21T09:36:24;40.85;;;22.05;;
27375;SDS011;14844;51.302;6.354;2023-11-21T09:38:51;38.85;;;22.00;;
27375;SDS011;14844;51.302;6.354;2023-11-21T09:41:23;44.15;;;23.38;;
27375;SDS011;14844;51.302;6.354;2023-11-21T09:44:00;41.20;;;22.52;;
27375;SDS011;14844;51.302;6.354;2023-11-21T09:46:27;45.03;;;23.27;;
27375;SDS011;14844;51.302;6.354;2023-11-21T09:48:54;39.50;;;21.60;;
27375;SDS011;14844;51.302;6.354;2023-11-21T09:51:24;41.22;;;20.90;;
27375;SDS011;14844;51.302;6.354;2023-11-21T09:53:55;38.15;;;20.95;;
27375;SDS011;14844;51.302;6.354;2023-11-21T09:56:24;41.58;;;21.00;;
27375;SDS011;14844;51.302;6.354;2023-11-21T09:58:52;35.92;;;20.10;;
27375;SDS011;14844;51.302;6.354;2023-11-21T10:01:18;36.53;;;20.13;;
27375;SDS011;14844;51.302;6.354;2023-11-21T10:03:45;40.55;;;21.00;;
27375;SDS011;14844;51.302;6.354;2023-11-21T10:06:12;37.97;;;20.00;;
27375;SDS011;14844;51.302;6.354;2023-11-21T10:08:39;39.47;;;21.33;;
27375;SDS011;14844;51.302;6.354;2023-11-21T10:11:06;36.78;;;21.20;;
27375;SDS011;14844;51.302;6.354;2023-11-21T10:13:33;42.45;;;22.38;;
27375;SDS011;14844;51.302;6.354;2023-11-21T10:15:59;43.97;;;22.95;;
27375;SDS011;14844;51.302;6.354;2023-11-21T10:18:30;41.55;;;22.90;;
27375;SDS011;14844;51.302;6.354;2023-11-21T10:20:59;42.88;;;23.38;;
27375;SDS011;14844;51.302;6.354;2023-11-21T10:23:25;42.80;;;24.25;;
27375;SDS011;14844;51.302;6.354;2023-11-21T10:25:52;40.28;;;23.45;;
27375;SDS011;14844;51.302;6.354;2023-11-21T10:28:18;42.53;;;23.10;;
27375;SDS011;14844;51.302;6.354;2023-11-21T10:30:44;39.10;;;21.58;;
27375;SDS011;14844;51.302;6.354;2023-11-21T10:33:09;36.40;;;20.63;;
27375;SDS011;14844;51.302;6.354;2023-11-21T10:35:39;37.45;;;20.35;;
27375;SDS011;14844;51.302;6.354;2023-11-21T10:38:15;42.45;;;21.73;;
27375;SDS011;14844;51.302;6.354;2023-11-21T10:40:47;37.78;;;20.90;;
27375;SDS011;14844;51.302;6.354;2023-11-21T10:43:14;38.20;;;21.83;;
27375;SDS011;14844;51.302;6.354;2023-11-21T10:45:40;43.78;;;21.92;;
27375;SDS011;14844;51.302;6.354;2023-11-21T10:48:07;40.08;;;21.55;;
27375;SDS011;14844;51.302;6.354;2023-11-21T10:50:34;40.63;;;21.85;;
27375;SDS011;14844;51.302;6.354;2023-11-21T10:53:04;40.13;;;21.23;;
27375;SDS011;14844;51.302;6.354;2023-11-21T10:55:31;40.60;;;21.17;;
27375;SDS011;14844;51.302;6.354;2023-11-21T10:57:58;40.28;;;20.95;;
27375;SDS011;14844;51.302;6.354;2023-11-21T11:00:26;42.88;;;22.98;;
27375;SDS011;14844;51.302;6.354;2023-11-21T11:02:53;37.60;;;20.38;;
27375;SDS011;14844;51.302;6.354;2023-11-21T11:05:20;37.65;;;20.17;;
27375;SDS011;14844;51.302;6.354;2023-11-21T11:07:49;37.55;;;20.35;;
27375;SDS011;14844;51.302;6.354;2023-11-21T11:10:19;37.47;;;21.00;;
27375;SDS011;14844;51.302;6.354;2023-11-21T11:12:47;36.65;;;19.50;;
27375;SDS011;14844;51.302;6.354;2023-11-21T11:15:13;42.90;;;20.95;;
27375;SDS011;14844;51.302;6.354;2023-11-21T11:17:41;37.75;;;20.98;;
27375;SDS011;14844;51.302;6.354;2023-11-21T11:20:08;39.42;;;21.05;;
27375;SDS011;14844;51.302;6.354;2023-11-21T11:22:37;36.47;;;20.48;;
27375;SDS011;14844;51.302;6.354;2023-11-21T11:25:25;38.05;;;20.67;;
27375;SDS011;14844;51.302;6.354;2023-11-21T11:33:43;37.13;;;19.38;;
27375;SDS011;14844;51.302;6.354;2023-11-21T11:36:24;35.22;;;18.95;;
27375;SDS011;14844;51.302;6.354;2023-11-21T11:38:54;36.92;;;17.90;;
27375;SDS011;14844;51.302;6.354;2023-11-21T11:41:28;31.98;;;17.65;;
27375;SDS011;14844;51.302;6.354;2023-11-21T11:43:59;35.33;;;17.58;;
27375;SDS011;14844;51.302;6.354;2023-11-21T11:46:42;31.67;;;17.25;;
27375;SDS011;14844;51.302;6.354;2023-11-21T11:49:24;29.52;;;17.00;;
27375;SDS011;14844;51.302;6.354;2023-11-21T11:55:00;27.60;;;16.50;;
27375;SDS011;14844;51.302;6.354;2023-11-21T11:57:31;28.48;;;16.75;;
27375;SDS011;14844;51.302;6.354;2023-11-21T12:00:06;26.20;;;15.57;;
27375;SDS011;14844;51.302;6.354;2023-11-21T12:02:35;28.48;;;16.08;;
27375;SDS011;14844;51.302;6.354;2023-11-21T12:05:06;34.05;;;17.17;;
27375;SDS011;14844;51.302;6.354;2023-11-21T12:10:28;32.00;;;17.20;;
27375;SDS011;14844;51.302;6.354;2023-11-21T12:12:58;31.65;;;16.75;;
27375;SDS011;14844;51.302;6.354;2023-11-21T12:15:26;30.33;;;17.35;;
27375;SDS011;14844;51.302;6.354;2023-11-21T12:17:55;31.50;;;17.00;;
27375;SDS011;14844;51.302;6.354;2023-11-21T12:20:21;31.20;;;17.13;;
27375;SDS011;14844;51.302;6.354;2023-11-21T12:25:33;32.03;;;18.65;;
27375;SDS011;14844;51.302;6.354;2023-11-21T12:30:33;35.50;;;17.23;;
27375;SDS011;14844;51.302;6.354;2023-11-21T12:33:03;30.75;;;16.60;;
27375;SDS011;14844;51.302;6.354;2023-11-21T12:35:32;30.65;;;16.60;;
27375;SDS011;14844;51.302;6.354;2023-11-21T12:37:59;31.52;;;18.17;;
27375;SDS011;14844;51.302;6.354;2023-11-21T12:40:27;32.45;;;18.20;;
27375;SDS011;14844;51.302;6.354;2023-11-21T12:42:55;33.70;;;18.25;;
27375;SDS011;14844;51.302;6.354;2023-11-21T12:47:50;44.33;;;22.85;;
27375;SDS011;14844;51.302;6.354;2023-11-21T12:50:23;38.60;;;19.98;;
27375;SDS011;14844;51.302;6.354;2023-11-21T12:52:54;39.80;;;22.05;;
27375;SDS011;14844;51.302;6.354;2023-11-21T12:55:23;40.47;;;22.58;;
27375;SDS011;14844;51.302;6.354;2023-11-21T12:57:50;42.05;;;23.08;;
27375;SDS011;14844;51.302;6.354;2023-11-21T13:00:18;43.47;;;25.15;;
27375;SDS011;14844;51.302;6.354;2023-11-21T13:02:57;47.60;;;24.05;;
27375;SDS011;14844;51.302;6.354;2023-11-21T13:05:30;46.65;;;24.40;;
27375;SDS011;14844;51.302;6.354;2023-11-21T13:07:57;47.90;;;25.23;;
27375;SDS011;14844;51.302;6.354;2023-11-21T13:10:27;44.33;;;23.85;;
27375;SDS011;14844;51.302;6.354;2023-11-21T13:12:57;41.05;;;22.52;;
27375;SDS011;14844;51.302;6.354;2023-11-21T13:15:26;41.22;;;22.55;;
27375;SDS011;14844;51.302;6.354;2023-11-21T13:17:52;35.88;;;20.55;;
27375;SDS011;14844;51.302;6.354;2023-11-21T13:20:19;30.85;;;18.42;;
27375;SDS011;14844;51.302;6.354;2023-11-21T13:22:51;37.47;;;19.30;;
27375;SDS011;14844;51.302;6.354;2023-11-21T13:25:22;32.42;;;19.17;;
27375;SDS011;14844;51.302;6.354;2023-11-21T13:27:55;33.35;;;19.45;;
27375;SDS011;14844;51.302;6.354;2023-11-21T13:30:22;36.10;;;19.38;;
27375;SDS011;14844;51.302;6.354;2023-11-21T13:33:01;30.65;;;19.27;;
27375;SDS011;14844;51.302;6.354;2023-11-21T13:35:32;32.42;;;19.25;;
27375;SDS011;14844;51.302;6.354;2023-11-21T13:38:12;34.25;;;20.05;;
27375;SDS011;14844;51.302;6.354;2023-11-21T13:40:40;34.13;;;19.90;;
27375;SDS011;14844;51.302;6.354;2023-11-21T13:43:10;40.40;;;21.55;;
27375;SDS011;14844;51.302;6.354;2023-11-21T13:48:48;36.72;;;19.85;;
27375;SDS011;14844;51.302;6.354;2023-11-21T13:51:23;30.13;;;18.55;;
27375;SDS011;14844;51.302;6.354;2023-11-21T13:53:59;29.92;;;18.02;;
27375;SDS011;14844;51.302;6.354;2023-11-21T13:56:25;30.25;;;18.45;;
27375;SDS011;14844;51.302;6.354;2023-11-21T13:58:53;31.98;;;19.10;;
27375;SDS011;14844;51.302;6.354;2023-11-21T14:01:20;31.73;;;19.45;;
27375;SDS011;14844;51.302;6.354;2023-11-21T14:03:56;35.85;;;20.60;;
27375;SDS011;14844;51.302;6.354;2023-11-21T14:06:32;31.33;;;20.15;;
27375;SDS011;14844;51.302;6.354;2023-11-21T14:09:05;32.35;;;20.52;;
27375;SDS011;14844;51.302;6.354;2023-11-21T14:11:31;33.22;;;20.13;;
27375;SDS011;14844;51.302;6.354;2023-11-21T14:13:59;33.80;;;20.70;;
27375;SDS011;14844;51.302;6.354;2023-11-21T14:16:25;35.53;;;22.17;;
27375;SDS011;14844;51.302;6.354;2023-11-21T14:18:50;30.25;;;20.95;;
27375;SDS011;14844;51.302;6.354;2023-11-21T14:21:26;35.08;;;21.85;;
27375;SDS011;14844;51.302;6.354;2023-11-21T14:23:52;36.08;;;22.98;;
27375;SDS011;14844;51.302;6.354;2023-11-21T14:26:19;38.80;;;22.58;;
27375;SDS011;14844;51.302;6.354;2023-11-21T14:28:45;38.20;;;24.92;;
27375;SDS011;14844;51.302;6.354;2023-11-21T14:31:13;38.58;;;24.98;;
27375;SDS011;14844;51.302;6.354;2023-11-21T14:33:41;39.45;;;24.40;;
27375;SDS011;14844;51.302;6.354;2023-11-21T14:36:08;34.30;;;22.77;;
27375;SDS011;14844;51.302;6.354;2023-11-21T14:38:35;33.75;;;22.88;;
27375;SDS011;14844;51.302;6.354;2023-11-21T14:41:02;33.70;;;22.00;;
27375;SDS011;14844;51.302;6.354;2023-11-21T14:43:29;34.50;;;22.67;;